LOWK

Klagenfurt Airport

Klagenfurt am Wörthersee, Austria
TAF LOWK 210515Z 2106/2206 VRB02KT CAVOK TX30/2113Z TN16/2204Z BECMG 2106/2108 9999 FEW060 TEMPO 2111/2117 08007KT FEW060 FEW060CB SCT300 PROB30 TEMPO 2112/2116 VRB15G25KT TSRA SCT050CB BKN070 BECMG 2118/2120 CAVOK
Issued Valid From Valid To
Aug-21 @ 05:15 UTC
(12 hours ago)
Aug-21 @ 06:00 UTC
(12 hours ago)
Aug-22 @ 06:00 UTC
(in 12 hours)
Aug-21 @ 06:00 to Aug-22 @ 06:00
TAF LOWK 210515Z 2106/2206 VRB02KT CAVOK TX30/2113Z TN16/2204Z
Wind Visibility Clouds
Variable at 2 knots 10,000+ meters
  • No significant clouds
Becoming Aug-21 @ 06:00 to Aug-21 @ 18:00
BECMG 2106/2108 9999 FEW060
Wind Visibility Clouds
Variable at 2 knots 10,000+ meters
  • Few at 6,000' AGL
Expired Click to View Aug-21 @ 11:00 to Aug-21 @ 17:00
TEMPO 2111/2117 08007KT FEW060 FEW060CB SCT300
Wind Clouds
80° at 7 knots
  • Few at 6,000' AGL
  • Few at 6,000' AGL
  • Scattered at 30,000' AGL
Expired Click to View Aug-21 @ 12:00 to Aug-21 @ 16:00
PROB30 TEMPO 2112/2116 VRB15G25KT TSRA SCT050CB BKN070
Wind Clouds Conditions
Variable at 15 knots
 Gusting to 25 knots
  • Scattered at 5,000' AGL
  • Broken at 7,000' AGL
  • Thunderstorm
  • Rain
Becoming Aug-21 @ 18:00 to Aug-22 @ 06:00
BECMG 2118/2120 CAVOK
Wind Visibility Clouds Conditions
Variable at 2 knots 10,000+ meters
  • No significant clouds
TAF LOWK 210515Z 2106/2206 VRB02KT CAVOK TX30/2113Z TN16/2204Z BECMG 2106/2108 9999 FEW060 TEMPO 2111/2117 08007KT FEW060 FEW060CB SCT300 PROB30 TEMPO 2112/2116 VRB15G25KT TSRA SCT050CB BKN070 BECMG 2118/2120 CAVOK
Issued Aug-21 @ 05:15 UTC
(12 hours ago)
Valid From Aug-21 @ 06:00 UTC
(12 hours ago)
Valid To Aug-22 @ 06:00 UTC
(in 12 hours)
Aug-21 @ 06:00 - Aug-22 @ 06:00
Wind Visibility
Variable at 2 knots 10,000+ meters
Clouds
  • No significant clouds
Becoming Aug-21 @ 06:00 - Aug-21 @ 18:00
Wind Visibility
Variable at 2 knots 10,000+ meters
Clouds
  • Few at 6,000' AGL
Aug-21 @ 11:00 - Aug-21 @ 17:00
Wind
80° at 7 knots
Clouds
  • Few at 6,000' AGL
  • Few at 6,000' AGL
  • Scattered at 30,000' AGL
Aug-21 @ 12:00 - Aug-21 @ 16:00
Wind
Variable at 15 knots
 Gusting to 25 knots
Clouds
  • Scattered at 5,000' AGL
  • Broken at 7,000' AGL
Conditions
  • Thunderstorm
  • Rain
Becoming Aug-21 @ 18:00 - Aug-22 @ 06:00
Wind Visibility
Variable at 2 knots 10,000+ meters
Clouds
  • No significant clouds
Conditions